Time;durP1;ratioP1;P1;durP2;ratioP2;P2;SDS_P1;SDS_P2;PMS_P1;PMS_P2;Temp;Humidity;BMP_temperature;BMP_pressure;BME280_temperature;BME280_humidity;BME280_pressure;Samples;Min_cycle;Max_cycle;Signal;HPM_P1;HPM_P2
2021/07/19 00:00:25;;;;;;;;;;;;;;;22.38;60.37;95932.34;1037688;28;1383;-78
2021/07/19 00:00:55;;;;;;;;;;;;;;;22.38;60.35;95932.34;1040001;28;1192;-77
2021/07/19 00:01:25;;;;;;;;;;;;;;;22.37;60.43;95931.56;1039942;28;1328;-77
2021/07/19 00:01:56;;;;;;;;;;;;;;;22.39;60.51;95928.63;1038250;28;1418;-77
2021/07/19 00:02:26;;;;;;;;;;;;;;;22.36;60.55;95929.97;1036042;28;1824;-77
2021/07/19 00:02:57;;;;;;;;;;;;;;;22.38;60.31;95935.00;1041059;28;1168;-78
2021/07/19 00:03:27;;;;;;;;;;;;;;;22.36;60.25;95935.25;1038510;28;1353;-77
2021/07/19 00:04:00;;;;;;;;;;;;;;;22.37;60.48;95936.84;1035367;28;2275;-77
2021/07/19 00:04:33;;;;;;;;;;;;;;;22.36;60.36;95929.97;1037706;28;2464;-77
2021/07/19 00:05:03;;;;;;;;;;;;;;;22.36;60.54;95935.25;1040829;28;1241;-78
2021/07/19 00:05:33;;;;;;;;;;;;;;;22.35;60.35;95928.41;1040870;28;1146;-77
2021/07/19 00:06:04;;;;;;;;;;;;;;;22.35;60.33;95933.69;1042427;28;1262;-77
2021/07/19 00:06:34;;;;;;;;;;;;;;;22.35;60.33;95936.31;1038926;28;1210;-77
2021/07/19 00:07:04;;;;;;;;;;;;;;;22.34;60.59;95937.38;1039005;28;1242;-77
2021/07/19 00:07:35;;;;;;;;;;;;;;;22.35;60.42;95936.31;1038523;28;1239;-78
2021/07/19 00:08:05;;;;;;;;;;;;;;;22.36;60.30;95934.47;1042575;28;1191;-78
2021/07/19 00:08:35;;;;;;;;;;;;;;;22.35;60.44;95933.69;1038403;28;1230;-78
2021/07/19 00:09:05;;;;;;;;;;;;;;;22.35;60.50;95928.41;1039869;28;1222;-78
2021/07/19 00:09:36;;;;;;;;;;;;;;;22.35;60.32;95932.88;1034417;28;2350;-77
2021/07/19 00:10:06;;;;;;;;;;;;;;;22.35;60.48;95935.53;1035259;28;1915;-77
2021/07/19 00:10:37;;;;;;;;;;;;;;;22.36;60.70;95932.59;1040728;28;1075;-78
2021/07/19 00:11:07;;;;;;;;;;;;;;;22.34;60.34;95934.75;1037856;28;1458;-78
2021/07/19 00:11:38;;;;;;;;;;;;;;;22.35;60.27;95936.31;1043259;28;1214;-77
2021/07/19 00:12:08;;;;;;;;;;;;;;;22.35;60.45;95933.69;1047508;28;1249;-78
2021/07/19 00:12:39;;;;;;;;;;;;;;;22.35;60.45;95933.69;1042097;28;1242;-79
2021/07/19 00:13:09;;;;;;;;;;;;;;;22.35;60.41;95931.03;1044963;28;1405;-78
2021/07/19 00:13:39;;;;;;;;;;;;;;;22.34;60.65;95929.47;1044627;28;1215;-79
2021/07/19 00:14:10;;;;;;;;;;;;;;;22.34;60.34;95929.47;1039561;28;1252;-79
2021/07/19 00:14:40;;;;;;;;;;;;;;;22.34;60.49;95929.47;1038077;28;2239;-79
2021/07/19 00:15:11;;;;;;;;;;;;;;;22.34;60.42;95926.81;1041533;28;1184;-79
2021/07/19 00:15:42;;;;;;;;;;;;;;;22.35;60.08;95927.59;1046024;28;1310;-79
2021/07/19 00:16:12;;;;;;;;;;;;;;;22.33;60.30;95930.53;1044382;28;1304;-79
2021/07/19 00:16:42;;;;;;;;;;;;;;;22.35;60.60;95925.75;1046068;28;1316;-78
2021/07/19 00:17:13;;;;;;;;;;;;;;;22.35;60.58;95928.41;1047285;28;1312;-78
2021/07/19 00:17:44;;;;;;;;;;;;;;;22.36;60.35;95929.97;1046406;28;1588;-78
2021/07/19 00:18:14;;;;;;;;;;;;;;;22.36;60.20;95929.97;1044300;28;1245;-79
2021/07/19 00:18:44;;;;;;;;;;;;;;;22.35;60.63;95933.69;1046136;28;1733;-79
2021/07/19 00:19:14;;;;;;;;;;;;;;;22.37;60.51;95936.03;1038360;28;1732;-78
2021/07/19 00:19:46;;;;;;;;;;;;;;;22.36;60.49;95924.69;1045485;28;2312;-79
2021/07/19 00:20:16;;;;;;;;;;;;;;;22.38;60.61;95930.47;1043162;28;2394;-79
2021/07/19 00:20:46;;;;;;;;;;;;;;;22.37;60.33;95931.56;1040027;28;1227;-78
2021/07/19 00:21:17;;;;;;;;;;;;;;;22.39;60.59;95936.53;1043100;28;1339;-79
2021/07/19 00:21:47;;;;;;;;;;;;;;;22.39;60.41;95937.34;1043644;28;1190;-79
2021/07/19 00:22:17;;;;;;;;;;;;;;;22.38;60.19;95932.34;1047224;28;1212;-79
2021/07/19 00:22:48;;;;;;;;;;;;;;;22.38;60.45;95938.38;1047796;28;1220;-79
2021/07/19 00:23:18;;;;;;;;;;;;;;;22.37;60.50;95931.56;1043130;28;1251;-79
2021/07/19 00:23:48;;;;;;;;;;;;;;;22.37;60.47;95931.56;1036853;28;1242;-79
2021/07/19 00:24:18;;;;;;;;;;;;;;;22.39;60.42;95934.69;1034846;28;1247;-78
2021/07/19 00:24:49;;;;;;;;;;;;;;;22.38;60.23;95927.81;1034770;28;1224;-79
2021/07/19 00:25:19;;;;;;;;;;;;;;;22.40;60.50;95932.84;1039445;28;2638;-80
2021/07/19 00:25:50;;;;;;;;;;;;;;;22.38;60.35;95933.09;1039881;28;1211;-80
2021/07/19 00:26:20;;;;;;;;;;;;;;;22.40;60.51;95943.41;1041188;28;1362;-79
2021/07/19 00:26:51;;;;;;;;;;;;;;;22.40;60.50;95936.25;1039534;28;2440;-79
2021/07/19 00:27:21;;;;;;;;;;;;;;;22.39;60.27;95934.69;1035945;28;1996;-79
2021/07/19 00:27:55;;;;;;;;;;;;;;;22.40;60.18;95938.13;1034710;28;1448;-79
2021/07/19 00:28:25;;;;;;;;;;;;;;;22.39;60.25;95932.06;1036776;28;2326;-79
2021/07/19 00:28:55;;;;;;;;;;;;;;;22.39;60.30;95934.69;1045263;28;1191;-79
2021/07/19 00:29:26;;;;;;;;;;;;;;;22.39;60.45;95937.34;1046509;28;1416;-79
2021/07/19 00:29:56;;;;;;;;;;;;;;;22.40;60.28;95935.50;1045677;28;2308;-78
2021/07/19 00:30:26;;;;;;;;;;;;;;;22.40;60.25;95938.91;1042364;28;2391;-78
2021/07/19 00:30:57;;;;;;;;;;;;;;;22.39;60.23;95939.97;1040751;28;1365;-79
2021/07/19 00:31:31;;;;;;;;;;;;;;;22.40;60.38;95930.22;1039266;28;1282;-79
2021/07/19 00:32:02;;;;;;;;;;;;;;;22.39;60.46;95933.91;1038493;28;1131;-78
2021/07/19 00:32:32;;;;;;;;;;;;;;;22.39;60.11;95934.69;1039200;28;1523;-78
2021/07/19 00:33:03;;;;;;;;;;;;;;;22.40;60.47;95938.13;1043258;28;1237;-79
2021/07/19 00:33:34;;;;;;;;;;;;;;;22.39;60.46;95937.34;1044992;28;1189;-79
2021/07/19 00:34:04;;;;;;;;;;;;;;;22.40;60.36;95930.22;1045226;28;1312;-79
2021/07/19 00:34:37;;;;;;;;;;;;;;;22.39;60.40;95931.25;1044371;28;1467;-78
2021/07/19 00:35:07;;;;;;;;;;;;;;;22.38;60.46;95935.00;1039236;28;2397;-79
2021/07/19 00:35:37;;;;;;;;;;;;;;;22.39;60.46;95934.69;1041564;28;1251;-79
2021/07/19 00:36:08;;;;;;;;;;;;;;;22.39;60.19;95929.41;1045666;28;1289;-79
2021/07/19 00:36:38;;;;;;;;;;;;;;;22.39;60.61;95936.53;1047491;28;1187;-79
2021/07/19 00:37:08;;;;;;;;;;;;;;;22.38;60.45;95933.09;1046319;28;1208;-80
2021/07/19 00:37:38;;;;;;;;;;;;;;;22.39;60.17;95933.91;1045901;28;1898;-79
2021/07/19 00:38:09;;;;;;;;;;;;;;;22.38;60.37;95937.63;1042821;28;1242;-78
2021/07/19 00:38:39;;;;;;;;;;;;;;;22.39;60.42;95934.69;1040003;28;1167;-79
2021/07/19 00:39:10;;;;;;;;;;;;;;;22.39;60.49;95934.69;1045333;28;1325;-79
2021/07/19 00:39:40;;;;;;;;;;;;;;;22.38;60.42;95938.38;1045939;28;1246;-79
2021/07/19 00:40:15;;;;;;;;;;;;;;;22.36;60.42;95935.25;1047374;28;2521;-78
2021/07/19 00:40:45;;;;;;;;;;;;;;;22.36;60.49;95937.13;1047792;28;1256;-79
2021/07/19 00:41:15;;;;;;;;;;;;;;;22.38;60.14;95937.63;1046903;28;1189;-79
2021/07/19 00:41:45;;;;;;;;;;;;;;;22.38;60.24;95937.63;1045899;28;1646;-79
2021/07/19 00:42:16;;;;;;;;;;;;;;;22.36;60.47;95937.88;1040718;28;1289;-78
2021/07/19 00:42:46;;;;;;;;;;;;;;;22.36;60.28;95935.25;1040281;28;1372;-78
2021/07/19 00:43:16;;;;;;;;;;;;;;;22.35;60.35;95941.59;1043728;28;1167;-78
2021/07/19 00:43:47;;;;;;;;;;;;;;;22.37;60.14;95938.69;1039191;28;2281;-78
2021/07/19 00:44:20;;;;;;;;;;;;;;;22.36;60.30;95935.25;1043826;28;1491;-77
2021/07/19 00:44:50;;;;;;;;;;;;;;;22.35;60.36;95938.97;1044590;28;1332;-78
2021/07/19 00:45:22;;;;;;;;;;;;;;;22.35;60.50;95928.41;1040109;28;2642;-78
2021/07/19 00:45:52;;;;;;;;;;;;;;;22.35;60.62;95936.31;1035646;28;1211;-77
2021/07/19 00:46:23;;;;;;;;;;;;;;;22.36;60.49;95932.59;1035421;28;1294;-77
2021/07/19 00:46:53;;;;;;;;;;;;;;;22.38;60.13;95935.75;1034374;28;1084;-77
2021/07/19 00:47:24;;;;;;;;;;;;;;;22.38;60.51;95935.75;1042281;28;1218;-77
2021/07/19 00:47:55;;;;;;;;;;;;;;;22.38;60.38;95935.00;1041147;28;1412;-77
2021/07/19 00:48:25;;;;;;;;;;;;;;;22.38;60.32;95929.72;1040607;28;1523;-78
2021/07/19 00:48:56;;;;;;;;;;;;;;;22.36;60.33;95935.25;1034761;28;1410;-77
2021/07/19 00:49:31;;;;;;;;;;;;;;;22.37;59.96;95934.19;1029869;28;1141;-77
2021/07/19 00:50:01;;;;;;;;;;;;;;;22.38;60.41;95930.47;1030815;28;2292;-76
2021/07/19 00:50:35;;;;;;;;;;;;;;;22.39;60.23;95923.34;1024923;28;1910;-77
2021/07/19 00:51:05;;;;;;;;;;;;;;;22.39;60.24;95923.34;1033081;28;1324;-77
2021/07/19 00:51:36;;;;;;;;;;;;;;;22.38;60.09;95933.09;1028291;28;1306;-75
2021/07/19 00:52:06;;;;;;;;;;;;;;;22.40;60.33;95924.94;1033997;28;1217;-78
2021/07/19 00:52:37;;;;;;;;;;;;;;;22.39;60.16;95933.91;1031763;28;1199;-77
2021/07/19 00:53:07;;;;;;;;;;;;;;;22.39;60.17;95934.69;1038953;28;1347;-77
2021/07/19 00:53:38;;;;;;;;;;;;;;;22.38;60.11;95930.47;1043631;28;1147;-78
2021/07/19 00:54:08;;;;;;;;;;;;;;;22.38;60.49;95927.81;1045193;28;2774;-78
2021/07/19 00:54:39;;;;;;;;;;;;;;;22.38;60.38;95927.81;1043511;28;1309;-78
2021/07/19 00:55:09;;;;;;;;;;;;;;;22.38;60.29;95927.81;1044155;28;2246;-77
2021/07/19 00:55:41;;;;;;;;;;;;;;;22.39;60.40;95926.78;1044383;28;1262;-77
2021/07/19 00:56:11;;;;;;;;;;;;;;;22.40;60.29;95930.22;1044674;28;1236;-77
2021/07/19 00:56:41;;;;;;;;;;;;;;;22.39;60.55;95934.69;1044251;28;1286;-77
2021/07/19 00:57:12;;;;;;;;;;;;;;;22.38;60.34;95933.09;1040284;28;1401;-79
2021/07/19 00:57:44;;;;;;;;;;;;;;;22.39;60.34;95928.63;1036337;28;1140;-77
2021/07/19 00:58:15;;;;;;;;;;;;;;;22.40;60.18;95930.97;1037694;28;1116;-77
2021/07/19 00:58:46;;;;;;;;;;;;;;;22.39;60.30;95926.78;1042820;28;1277;-77
2021/07/19 00:59:16;;;;;;;;;;;;;;;22.40;60.41;95932.84;1037679;28;1310;-78
2021/07/19 00:59:46;;;;;;;;;;;;;;;22.39;60.59;95933.91;1037038;28;1247;-78
2021/07/19 01:00:17;;;;;;;;;;;;;;;22.39;60.39;95931.25;1031794;28;2268;-78
2021/07/19 01:00:48;;;;;;;;;;;;;;;22.39;60.19;95932.06;1033737;28;1302;-78
2021/07/19 01:01:18;;;;;;;;;;;;;;;22.39;60.34;95929.41;1035651;28;1331;-78
2021/07/19 01:01:48;;;;;;;;;;;;;;;22.39;60.33;95929.41;1036095;28;1274;-78
2021/07/19 01:02:19;;;;;;;;;;;;;;;22.39;60.44;95929.41;1029645;28;1550;-78
2021/07/19 01:02:49;;;;;;;;;;;;;;;22.38;60.19;95933.09;1026679;28;1239;-78
2021/07/19 01:03:20;;;;;;;;;;;;;;;22.38;60.23;95933.09;1028827;28;1261;-78
2021/07/19 01:03:50;;;;;;;;;;;;;;;22.39;60.37;95933.91;1028421;28;2248;-78
2021/07/19 01:04:20;;;;;;;;;;;;;;;22.39;60.63;95932.06;1033061;28;1857;-79
2021/07/19 01:04:50;;;;;;;;;;;;;;;22.38;60.32;95933.09;1033051;28;1397;-78
2021/07/19 01:05:21;;;;;;;;;;;;;;;22.38;60.34;95933.09;1032329;28;2646;-80
2021/07/19 01:05:51;;;;;;;;;;;;;;;22.38;60.64;95935.00;1034677;28;1483;-78
2021/07/19 01:06:22;;;;;;;;;;;;;;;22.38;60.25;95933.09;1030228;28;1384;-78
2021/07/19 01:06:53;;;;;;;;;;;;;;;22.38;60.34;95927.06;1030588;28;1298;-79
2021/07/19 01:07:24;;;;;;;;;;;;;;;22.40;60.36;95930.22;1026340;28;1320;-78
2021/07/19 01:07:54;;;;;;;;;;;;;;;22.38;60.03;95930.47;1034731;28;1290;-79
2021/07/19 01:08:25;;;;;;;;;;;;;;;22.39;60.45;95934.69;1037071;28;1314;-78
2021/07/19 01:08:56;;;;;;;;;;;;;;;22.40;60.43;95936.25;1034079;28;1196;-78
2021/07/19 01:09:29;;;;;;;;;;;;;;;22.39;60.37;95937.34;1045134;28;1738;-78
2021/07/19 01:09:59;;;;;;;;;;;;;;;22.39;60.35;95934.69;1044158;28;1389;-79
2021/07/19 01:10:30;;;;;;;;;;;;;;;22.39;60.23;95929.41;1036901;28;2409;-77
2021/07/19 01:11:00;;;;;;;;;;;;;;;22.39;60.71;95929.41;1036619;28;1304;-79
2021/07/19 01:11:30;;;;;;;;;;;;;;;22.40;60.09;95928.34;1033978;28;1380;-78
2021/07/19 01:12:00;;;;;;;;;;;;;;;22.40;60.17;95936.25;1034072;28;1373;-78
2021/07/19 01:12:31;;;;;;;;;;;;;;;22.39;60.30;95929.41;1033561;28;1215;-78
2021/07/19 01:13:02;;;;;;;;;;;;;;;22.39;60.13;95924.13;1037187;28;1219;-78
2021/07/19 01:13:32;;;;;;;;;;;;;;;22.40;60.32;95930.97;1040046;28;1128;-78
2021/07/19 01:14:02;;;;;;;;;;;;;;;22.40;60.36;95932.84;1040377;28;2819;-78
2021/07/19 01:14:33;;;;;;;;;;;;;;;22.37;60.71;95936.84;1037875;28;2864;-75
2021/07/19 01:15:05;;;;;;;;;;;;;;;22.40;60.29;95930.22;1039071;28;1532;-76
2021/07/19 01:15:36;;;;;;;;;;;;;;;22.38;60.73;95935.75;1037760;28;2934;-76
2021/07/19 01:16:06;;;;;;;;;;;;;;;22.39;60.29;95933.91;1040524;28;1282;-78
2021/07/19 01:16:37;;;;;;;;;;;;;;;22.40;60.24;95936.25;1035980;28;1243;-76
2021/07/19 01:17:07;;;;;;;;;;;;;;;22.40;60.01;95933.63;1036833;28;1252;-76
2021/07/19 01:17:37;;;;;;;;;;;;;;;22.41;60.37;95937.06;1036672;28;1202;-77
2021/07/19 01:18:08;;;;;;;;;;;;;;;22.41;60.15;95929.13;1029090;28;1302;-76
2021/07/19 01:18:38;;;;;;;;;;;;;;;22.41;60.05;95931.78;1026919;28;1144;-78
2021/07/19 01:19:09;;;;;;;;;;;;;;;22.40;60.36;95933.63;1029183;28;1220;-76
2021/07/19 01:19:39;;;;;;;;;;;;;;;22.39;60.22;95934.69;1029833;28;1242;-76
2021/07/19 01:20:10;;;;;;;;;;;;;;;22.39;60.39;95936.53;1031401;28;2479;-78
2021/07/19 01:20:59;;;;;;;;;;;;;;;22.38;60.17;95930.47;1032414;28;2640;-77
2021/07/19 01:21:42;;;;;;;;;;;;;;;22.39;59.96;95939.97;1037200;28;1709;-76
2021/07/19 01:22:18;;;;;;;;;;;;;;;22.39;59.79;95933.91;1042132;28;1171;-76
2021/07/19 01:23:08;;;;;;;;;;;;;;;22.39;60.05;95933.91;1042213;28;1265;-76
2021/07/19 01:23:57;;;;;;;;;;;;;;;22.39;59.82;95933.91;1043905;28;1103;-77
2021/07/19 01:24:45;;;;;;;;;;;;;;;22.39;60.01;95934.69;1043693;28;1389;-76
2021/07/19 01:25:34;;;;;;;;;;;;;;;22.39;60.01;95933.91;1042730;28;2447;-77
2021/07/19 01:26:23;;;;;;;;;;;;;;;22.40;60.24;95940.78;1047804;28;2296;-77
2021/07/19 01:26:54;;;;;;;;;;;;;;;22.40;59.74;95932.84;1042223;28;1285;-77
2021/07/19 01:27:30;;;;;;;;;;;;;;;22.39;59.84;95929.41;1042232;28;1473;-77
2021/07/19 01:28:02;;;;;;;;;;;;;;;22.39;60.10;95934.69;1041470;28;1234;-78
2021/07/19 01:28:34;;;;;;;;;;;;;;;22.39;59.83;95937.34;1039090;28;1080;-77
2021/07/19 01:29:06;;;;;;;;;;;;;;;22.39;60.10;95929.41;1044557;28;1305;-78
2021/07/19 01:29:37;;;;;;;;;;;;;;;22.38;60.25;95935.75;1043889;28;1308;-78
2021/07/19 01:30:07;;;;;;;;;;;;;;;22.39;60.26;95933.91;1044964;28;1325;-78
2021/07/19 01:30:39;;;;;;;;;;;;;;;22.39;59.84;95939.19;1043053;28;2874;-78
2021/07/19 01:31:14;;;;;;;;;;;;;;;22.38;59.83;95935.75;1039896;28;1302;-78
2021/07/19 01:31:44;;;;;;;;;;;;;;;22.38;59.93;95930.47;1031643;28;1314;-78
2021/07/19 01:32:15;;;;;;;;;;;;;;;22.36;60.13;95929.19;1035915;28;1193;-78
2021/07/19 01:32:45;;;;;;;;;;;;;;;22.38;60.04;95929.72;1032323;28;1266;-77
2021/07/19 01:33:16;;;;;;;;;;;;;;;22.36;60.07;95935.25;1039733;28;1210;-77
2021/07/19 01:33:47;;;;;;;;;;;;;;;22.36;59.90;95932.59;1033598;28;1204;-77
2021/07/19 01:34:18;;;;;;;;;;;;;;;22.37;59.90;95936.03;1029700;28;1294;-78
2021/07/19 01:34:48;;;;;;;;;;;;;;;22.36;60.28;95935.25;1029971;28;1298;-78
2021/07/19 01:35:18;;;;;;;;;;;;;;;22.36;59.84;95934.47;1030182;28;2453;-78
2021/07/19 01:35:49;;;;;;;;;;;;;;;22.37;59.89;95928.91;1036311;28;1370;-77
2021/07/19 01:36:20;;;;;;;;;;;;;;;22.38;60.16;95930.47;1029454;28;1284;-77
2021/07/19 01:36:56;;;;;;;;;;;;;;;22.38;60.09;95940.28;1031179;28;1298;-78
2021/07/19 01:37:26;;;;;;;;;;;;;;;22.37;60.16;95931.56;1025226;29;1339;-78
2021/07/19 01:37:56;;;;;;;;;;;;;;;22.37;60.07;95930.75;1025533;28;1298;-78
2021/07/19 01:38:28;;;;;;;;;;;;;;;22.36;59.91;95935.25;1030707;28;1228;-77
2021/07/19 01:38:59;;;;;;;;;;;;;;;22.36;59.89;95929.19;1029997;28;1193;-78
2021/07/19 01:39:32;;;;;;;;;;;;;;;22.36;60.10;95935.25;1029969;28;1303;-77
2021/07/19 01:40:02;;;;;;;;;;;;;;;22.37;59.94;95936.84;1029823;28;1277;-77
2021/07/19 01:40:32;;;;;;;;;;;;;;;22.36;60.00;95929.97;1032005;28;2535;-77
2021/07/19 01:41:03;;;;;;;;;;;;;;;22.36;60.10;95937.88;1036315;28;1339;-77
2021/07/19 01:41:33;;;;;;;;;;;;;;;22.36;60.05;95937.88;1029930;28;1243;-78
2021/07/19 01:42:04;;;;;;;;;;;;;;;22.34;59.98;95936.63;1031180;28;1311;-77
2021/07/19 01:42:35;;;;;;;;;;;;;;;22.36;60.07;95945.81;1029613;28;1243;-77
2021/07/19 01:43:05;;;;;;;;;;;;;;;22.36;59.91;95935.25;1032664;28;1318;-79
2021/07/19 01:43:35;;;;;;;;;;;;;;;22.36;60.06;95939.75;1026254;28;1543;-78
2021/07/19 01:44:06;;;;;;;;;;;;;;;22.36;59.86;95937.88;1025864;28;1265;-77
2021/07/19 01:44:36;;;;;;;;;;;;;;;22.36;60.30;95932.59;1030128;28;2878;-78
2021/07/19 01:45:07;;;;;;;;;;;;;;;22.37;60.25;95936.84;1032084;28;2841;-77
2021/07/19 01:45:37;;;;;;;;;;;;;;;22.38;60.10;95940.28;1040869;28;2852;-77
2021/07/19 01:46:07;;;;;;;;;;;;;;;22.36;60.07;95935.25;1045022;28;1206;-77
2021/07/19 01:46:38;;;;;;;;;;;;;;;22.39;59.93;95939.19;1039576;28;1283;-78
2021/07/19 01:47:08;;;;;;;;;;;;;;;22.38;60.29;95935.75;1040375;28;1653;-78
2021/07/19 01:47:38;;;;;;;;;;;;;;;22.38;60.30;95930.47;1035925;28;1234;-78
2021/07/19 01:48:09;;;;;;;;;;;;;;;22.39;60.15;95936.53;1030445;28;1270;-77
2021/07/19 01:48:39;;;;;;;;;;;;;;;22.39;59.94;95934.69;1026943;28;1716;-78
2021/07/19 01:49:09;;;;;;;;;;;;;;;22.39;59.84;95936.53;1033465;28;1223;-79
2021/07/19 01:49:40;;;;;;;;;;;;;;;22.39;59.87;95932.06;1027371;28;1242;-78
2021/07/19 01:50:10;;;;;;;;;;;;;;;22.38;59.95;95927.81;1036186;28;1968;-76
2021/07/19 01:50:40;;;;;;;;;;;;;;;22.38;59.90;95937.63;1026601;28;2067;-78
2021/07/19 01:51:11;;;;;;;;;;;;;;;22.38;60.05;95938.38;1037479;28;1435;-78
2021/07/19 01:51:41;;;;;;;;;;;;;;;22.38;60.02;95933.09;1031838;28;1247;-78
2021/07/19 01:52:12;;;;;;;;;;;;;;;22.38;59.90;95935.75;1033998;28;1243;-78
2021/07/19 01:52:42;;;;;;;;;;;;;;;22.39;60.12;95933.91;1027252;28;1439;-78
2021/07/19 01:53:13;;;;;;;;;;;;;;;22.39;59.87;95934.69;1024838;28;1202;-78
2021/07/19 01:53:43;;;;;;;;;;;;;;;22.39;60.20;95931.25;1027542;28;1428;-78
2021/07/19 01:54:14;;;;;;;;;;;;;;;22.39;59.98;95926.78;1029773;28;2891;-78
2021/07/19 01:54:44;;;;;;;;;;;;;;;22.38;60.22;95927.81;1034483;28;1247;-78
2021/07/19 01:55:14;;;;;;;;;;;;;;;22.38;60.20;95927.06;1036728;28;1247;-77
2021/07/19 01:55:44;;;;;;;;;;;;;;;22.38;60.37;95922.53;1037790;28;2571;-79
2021/07/19 01:56:15;;;;;;;;;;;;;;;22.37;60.24;95923.63;1036997;28;1246;-78
2021/07/19 01:56:46;;;;;;;;;;;;;;;22.38;59.86;95933.09;1030976;28;1319;-79
2021/07/19 01:57:16;;;;;;;;;;;;;;;22.36;60.11;95927.31;1029334;28;1341;-79
2021/07/19 01:57:46;;;;;;;;;;;;;;;22.38;60.16;95924.41;1031224;28;1306;-79
2021/07/19 01:58:17;;;;;;;;;;;;;;;22.38;60.29;95917.25;1027046;29;1263;-79
2021/07/19 01:58:47;;;;;;;;;;;;;;;22.39;59.96;95923.34;1025672;28;1351;-79
2021/07/19 01:59:18;;;;;;;;;;;;;;;22.39;60.33;95924.13;1028791;28;1375;-78
2021/07/19 01:59:48;;;;;;;;;;;;;;;22.39;60.02;95929.41;1030745;28;1279;-78
2021/07/19 02:00:19;;;;;;;;;;;;;;;22.39;60.19;95924.13;1025642;28;1156;-78
2021/07/19 02:00:49;;;;;;;;;;;;;;;22.40;59.95;95930.22;1030324;28;1962;-79
2021/07/19 02:01:19;;;;;;;;;;;;;;;22.39;60.18;95921.50;1034736;28;1217;-79
2021/07/19 02:01:50;;;;;;;;;;;;;;;22.39;59.94;95926.78;1033086;28;1251;-78
2021/07/19 02:02:20;;;;;;;;;;;;;;;22.39;60.17;95924.13;1041683;28;1242;-79
2021/07/19 02:02:51;;;;;;;;;;;;;;;22.40;59.92;95920.41;1038897;28;1310;-79
2021/07/19 02:03:21;;;;;;;;;;;;;;;22.40;60.22;95919.66;1033631;28;1187;-78
2021/07/19 02:03:52;;;;;;;;;;;;;;;22.39;59.97;95929.41;1029867;28;2675;-78
2021/07/19 02:04:22;;;;;;;;;;;;;;;22.39;59.81;95923.34;1030955;28;1227;-78
2021/07/19 02:04:53;;;;;;;;;;;;;;;22.38;60.22;95927.81;1035064;28;1340;-79
2021/07/19 02:05:25;;;;;;;;;;;;;;;22.38;60.15;95925.19;1034165;28;2426;-79
2021/07/19 02:05:56;;;;;;;;;;;;;;;22.38;60.11;95927.81;1040159;28;1108;-78
2021/07/19 02:06:26;;;;;;;;;;;;;;;22.38;60.11;95921.78;1047052;28;1218;-78
2021/07/19 02:06:57;;;;;;;;;;;;;;;22.36;60.00;95919.41;1042718;28;1265;-79
2021/07/19 02:07:27;;;;;;;;;;;;;;;22.38;59.95;95919.91;1039394;28;1267;-78
2021/07/19 02:07:59;;;;;;;;;;;;;;;22.37;59.90;95926.28;1044063;28;1241;-78
2021/07/19 02:08:29;;;;;;;;;;;;;;;22.37;60.11;95926.28;1036768;28;1370;-78
2021/07/19 02:09:06;;;;;;;;;;;;;;;22.38;60.00;95930.47;1031826;28;1509;-78
2021/07/19 02:09:36;;;;;;;;;;;;;;;22.38;59.94;95919.91;1029112;28;1327;-78
2021/07/19 02:10:07;;;;;;;;;;;;;;;22.39;60.24;95929.41;1030400;28;1299;-77
2021/07/19 02:10:37;;;;;;;;;;;;;;;22.39;59.87;95929.41;1029734;28;2524;-79
2021/07/19 02:11:08;;;;;;;;;;;;;;;22.39;60.10;95932.06;1034137;28;1246;-78
2021/07/19 02:11:38;;;;;;;;;;;;;;;22.38;60.25;95933.09;1034331;28;1226;-78
2021/07/19 02:12:08;;;;;;;;;;;;;;;22.39;60.00;95931.25;1025790;28;1255;-77
2021/07/19 02:12:39;;;;;;;;;;;;;;;22.39;60.31;95928.63;1027611;28;1695;-78
2021/07/19 02:13:10;;;;;;;;;;;;;;;22.38;60.31;95927.81;1030184;28;1259;-79
2021/07/19 02:13:41;;;;;;;;;;;;;;;22.39;59.84;95937.34;1033965;28;1227;-78
2021/07/19 02:14:12;;;;;;;;;;;;;;;22.39;60.07;95937.34;1040170;28;1413;-79
2021/07/19 02:14:42;;;;;;;;;;;;;;;22.38;60.11;95933.09;1037112;28;1232;-78
2021/07/19 02:15:17;;;;;;;;;;;;;;;22.38;59.75;95933.09;1037249;28;2428;-77
2021/07/19 02:15:48;;;;;;;;;;;;;;;22.38;60.24;95930.47;1036408;28;2433;-79
2021/07/19 02:16:18;;;;;;;;;;;;;;;22.39;59.63;95928.63;1041058;28;1144;-78
2021/07/19 02:16:49;;;;;;;;;;;;;;;22.38;59.90;95933.09;1039547;28;1167;-77
2021/07/19 02:17:19;;;;;;;;;;;;;;;22.38;60.16;95933.09;1041354;28;1245;-78
2021/07/19 02:17:56;;;;;;;;;;;;;;;22.39;59.91;95928.63;1036239;28;1238;-78
2021/07/19 02:18:26;;;;;;;;;;;;;;;22.38;60.25;95925.19;1040204;28;1135;-78
2021/07/19 02:18:57;;;;;;;;;;;;;;;22.38;60.18;95932.34;1035670;28;1171;-78
2021/07/19 02:19:28;;;;;;;;;;;;;;;22.38;59.67;95922.53;1036544;28;1628;-79
2021/07/19 02:19:58;;;;;;;;;;;;;;;22.38;60.32;95927.81;1039907;28;1186;-78
2021/07/19 02:20:28;;;;;;;;;;;;;;;22.38;60.03;95925.19;1034339;28;2524;-78
2021/07/19 02:20:59;;;;;;;;;;;;;;;22.39;60.16;95925.97;1043366;28;1184;-79
2021/07/19 02:21:29;;;;;;;;;;;;;;;22.38;60.26;95927.81;1038841;28;1423;-78
2021/07/19 02:22:00;;;;;;;;;;;;;;;22.39;60.29;95924.13;1038405;28;1279;-79
2021/07/19 02:22:30;;;;;;;;;;;;;;;22.38;59.94;95925.19;1034933;28;1660;-79
2021/07/19 02:23:03;;;;;;;;;;;;;;;22.38;59.96;95927.06;1035390;28;1893;-79
2021/07/19 02:23:34;;;;;;;;;;;;;;;22.35;59.98;95928.41;1037293;28;1053;-78
2021/07/19 02:24:05;;;;;;;;;;;;;;;22.36;60.14;95923.91;1038612;28;1286;-79
2021/07/19 02:24:35;;;;;;;;;;;;;;;22.35;60.09;95933.69;1041733;28;1401;-78
2021/07/19 02:25:06;;;;;;;;;;;;;;;22.36;60.12;95929.19;1043390;28;1262;-78
2021/07/19 02:25:36;;;;;;;;;;;;;;;22.36;59.76;95929.97;1033111;28;2514;-78
2021/07/19 02:26:06;;;;;;;;;;;;;;;22.38;59.99;95929.72;1036728;28;1434;-78
2021/07/19 02:26:37;;;;;;;;;;;;;;;22.39;59.91;95924.13;1032077;28;1226;-77
2021/07/19 02:27:07;;;;;;;;;;;;;;;22.39;59.86;95931.25;1031976;28;1228;-78
2021/07/19 02:27:38;;;;;;;;;;;;;;;22.38;60.01;95933.09;1032345;28;1410;-78
2021/07/19 02:28:09;;;;;;;;;;;;;;;22.38;60.24;95927.81;1033974;28;1436;-78
2021/07/19 02:28:39;;;;;;;;;;;;;;;22.38;59.61;95930.47;1031768;28;2901;-76
2021/07/19 02:29:10;;;;;;;;;;;;;;;22.38;60.08;95925.19;1036574;28;1357;-77
2021/07/19 02:29:40;;;;;;;;;;;;;;;22.38;59.69;95932.34;1034151;28;1251;-78
2021/07/19 02:30:10;;;;;;;;;;;;;;;22.38;60.02;95927.06;1033485;28;1599;-78
2021/07/19 02:30:41;;;;;;;;;;;;;;;22.38;60.10;95927.81;1035368;28;2552;-77
2021/07/19 02:31:12;;;;;;;;;;;;;;;22.39;59.94;95929.41;1040807;28;1446;-77
2021/07/19 02:31:42;;;;;;;;;;;;;;;22.38;60.16;95925.19;1041223;28;1623;-78
2021/07/19 02:32:13;;;;;;;;;;;;;;;22.37;59.99;95926.28;1038946;28;1010;-78
2021/07/19 02:32:50;;;;;;;;;;;;;;;22.37;59.81;95934.19;1032048;28;1385;-78
2021/07/19 02:33:20;;;;;;;;;;;;;;;22.37;59.98;95928.91;1035877;28;1183;-77
2021/07/19 02:33:51;;;;;;;;;;;;;;;22.38;59.98;95927.06;1035459;28;1132;-77
2021/07/19 02:34:21;;;;;;;;;;;;;;;22.38;59.91;95927.81;1037865;28;1455;-76
2021/07/19 02:34:51;;;;;;;;;;;;;;;22.36;59.97;95929.19;1033324;28;1227;-77
2021/07/19 02:35:24;;;;;;;;;;;;;;;22.36;59.75;95927.31;1033264;28;1144;-77
2021/07/19 02:35:54;;;;;;;;;;;;;;;22.35;59.99;95923.13;1029401;28;2917;-77
2021/07/19 02:36:25;;;;;;;;;;;;;;;22.35;59.93;95922.31;1032623;28;1406;-76
2021/07/19 02:36:55;;;;;;;;;;;;;;;22.35;59.90;95925.75;1033163;28;1144;-78
2021/07/19 02:37:25;;;;;;;;;;;;;;;22.36;59.97;95924.69;1032854;28;1459;-77
2021/07/19 02:37:56;;;;;;;;;;;;;;;22.36;60.11;95919.41;1032371;28;1481;-77
2021/07/19 02:38:27;;;;;;;;;;;;;;;22.37;59.81;95928.91;1032730;28;827;-77
2021/07/19 02:38:57;;;;;;;;;;;;;;;22.35;59.72;95922.31;1038319;28;1164;-77
2021/07/19 02:39:27;;;;;;;;;;;;;;;22.36;59.86;95921.28;1037198;28;1080;-76
2021/07/19 02:40:01;;;;;;;;;;;;;;;22.37;60.02;95925.47;1035264;28;1231;-78
2021/07/19 02:40:32;;;;;;;;;;;;;;;22.36;59.78;95924.69;1035830;28;2468;-77
2021/07/19 02:41:03;;;;;;;;;;;;;;;22.36;60.07;95924.69;1035765;28;2295;-78
2021/07/19 02:41:33;;;;;;;;;;;;;;;22.35;59.70;95922.31;1037294;28;1309;-77
2021/07/19 02:42:03;;;;;;;;;;;;;;;22.35;59.79;95927.59;1037042;28;1202;-77
2021/07/19 02:42:34;;;;;;;;;;;;;;;22.35;60.07;95928.41;1030155;28;1229;-77
2021/07/19 02:43:06;;;;;;;;;;;;;;;22.34;59.80;95918.91;1034671;28;1152;-78
2021/07/19 02:43:36;;;;;;;;;;;;;;;22.34;59.53;95921.53;1037234;28;1217;-77
2021/07/19 02:44:06;;;;;;;;;;;;;;;22.34;60.04;95921.53;1032427;28;1201;-77
2021/07/19 02:44:37;;;;;;;;;;;;;;;22.35;60.07;95924.97;1037016;28;1417;-77